createdAt,value
2022-11-16T00:00:36.861Z,54.70
2022-11-16T00:01:36.922Z,53.00
2022-11-16T00:02:36.915Z,52.50
2022-11-16T00:03:36.787Z,49.70
2022-11-16T00:04:36.797Z,52.60
2022-11-16T00:05:36.776Z,51.90
2022-11-16T00:06:36.762Z,52.20
2022-11-16T00:07:36.842Z,49.70
2022-11-16T00:08:36.877Z,50.60
2022-11-16T00:09:36.739Z,50.70
2022-11-16T00:10:36.707Z,50.80
2022-11-16T00:11:36.692Z,50.10
2022-11-16T00:12:36.757Z,49.80
2022-11-16T00:13:36.661Z,50.10
2022-11-16T00:15:47.802Z,48.90
2022-11-16T00:16:48.806Z,50.20
2022-11-16T00:17:48.789Z,50.60
2022-11-16T00:18:48.781Z,49.10
2022-11-16T00:19:48.774Z,49.30
2022-11-16T00:20:48.777Z,48.50
2022-11-16T00:21:48.746Z,50.10
2022-11-16T00:22:48.738Z,48.90
2022-11-16T00:23:48.692Z,48.70
2022-11-16T00:24:48.715Z,47.10
2022-11-16T00:25:48.712Z,47.90
2022-11-16T00:26:49.704Z,47.20
2022-11-16T00:27:48.655Z,48.70
2022-11-16T00:28:48.640Z,47.10
2022-11-16T00:29:48.627Z,47.20
2022-11-16T00:30:48.629Z,47.70
2022-11-16T00:31:48.626Z,47.10
2022-11-16T00:32:48.605Z,48.90
2022-11-16T00:33:48.594Z,47.80
2022-11-16T00:34:48.581Z,49.00
2022-11-16T00:35:48.540Z,46.60
2022-11-16T00:36:48.540Z,46.90
2022-11-16T00:37:48.516Z,46.50
2022-11-16T00:38:48.526Z,47.70
2022-11-16T00:39:48.526Z,45.70
2022-11-16T00:40:48.499Z,47.80
2022-11-16T00:41:48.485Z,46.10
2022-11-16T00:42:48.457Z,46.80
2022-11-16T00:43:48.444Z,44.30
2022-11-16T00:44:48.425Z,46.40
2022-11-16T00:45:48.415Z,46.30
2022-11-16T00:46:48.403Z,47.20
2022-11-16T00:47:48.413Z,45.00
2022-11-16T00:48:48.368Z,46.30
2022-11-16T00:49:48.398Z,47.50
2022-11-16T00:50:48.366Z,47.60
2022-11-16T00:51:48.357Z,45.40
2022-11-16T00:52:48.349Z,47.10
2022-11-16T00:53:48.320Z,45.00
2022-11-16T00:54:48.305Z,47.80
2022-11-16T00:55:48.339Z,46.60
2022-11-16T00:56:48.282Z,48.10
2022-11-16T00:57:48.259Z,47.30
2022-11-16T00:58:48.290Z,45.90
2022-11-16T00:59:48.274Z,48.10
2022-11-16T01:00:48.227Z,46.10
2022-11-16T01:01:48.260Z,46.30
2022-11-16T01:02:48.214Z,47.20
2022-11-16T01:03:48.198Z,46.30
2022-11-16T01:04:48.179Z,44.60
2022-11-16T01:05:48.175Z,46.30
2022-11-16T01:06:48.172Z,47.60
2022-11-16T01:07:48.146Z,47.70
2022-11-16T01:08:48.110Z,47.80
2022-11-16T01:09:48.143Z,45.40
2022-11-16T01:10:48.119Z,45.80
2022-11-16T01:11:48.099Z,46.20
2022-11-16T01:12:48.082Z,45.90
2022-11-16T01:13:48.067Z,47.10
2022-11-16T01:14:48.050Z,45.30
2022-11-16T01:15:48.056Z,47.80
2022-11-16T01:16:48.004Z,47.60
2022-11-16T01:17:48.028Z,46.10
2022-11-16T01:18:47.977Z,46.80
2022-11-16T01:19:47.970Z,47.90
2022-11-16T01:20:47.951Z,46.10
2022-11-16T01:21:47.961Z,47.60
2022-11-16T01:22:47.961Z,46.10
2022-11-16T01:23:47.950Z,47.60
2022-11-16T01:24:47.924Z,46.30
2022-11-16T01:25:47.906Z,47.20
2022-11-16T01:26:47.907Z,48.00
2022-11-16T01:27:47.882Z,46.40
2022-11-16T01:28:47.857Z,47.60
2022-11-16T01:29:47.855Z,47.60
2022-11-16T01:30:47.880Z,46.10
2022-11-16T01:31:47.826Z,47.00
2022-11-16T01:32:47.819Z,44.30
2022-11-16T01:33:47.812Z,45.90
2022-11-16T01:34:47.796Z,44.30
2022-11-16T01:35:47.813Z,46.80
2022-11-16T01:36:47.751Z,47.00
2022-11-16T01:37:47.757Z,45.60
2022-11-16T01:38:47.737Z,45.40
2022-11-16T01:39:47.774Z,45.50
2022-11-16T01:40:47.730Z,45.90
2022-11-16T01:41:47.741Z,45.60
2022-11-16T01:42:47.686Z,45.70
2022-11-16T01:43:47.700Z,47.70
2022-11-16T01:44:47.675Z,47.00
2022-11-16T01:45:47.680Z,44.30
2022-11-16T01:46:47.639Z,43.30
2022-11-16T01:47:47.620Z,45.10
2022-11-16T01:48:47.681Z,46.10
2022-11-16T01:49:47.647Z,44.80
2022-11-16T01:50:47.597Z,45.10
2022-11-16T01:51:47.573Z,45.30
2022-11-16T01:52:47.571Z,43.90
2022-11-16T01:53:47.549Z,45.60
2022-11-16T01:54:47.541Z,44.00
2022-11-16T01:55:47.561Z,44.50
2022-11-16T01:56:47.509Z,43.70
2022-11-16T01:57:47.506Z,43.10
2022-11-16T01:58:47.472Z,45.30
2022-11-16T01:59:47.471Z,43.00
2022-11-16T02:00:47.472Z,42.60
2022-11-16T02:01:47.429Z,44.30
2022-11-16T02:02:47.435Z,44.00
2022-11-16T02:03:47.422Z,42.80
2022-11-16T02:04:47.380Z,43.80
2022-11-16T02:05:47.389Z,43.30
2022-11-16T02:06:47.454Z,42.30
2022-11-16T02:07:47.395Z,43.50
2022-11-16T02:08:47.363Z,42.80
2022-11-16T02:09:47.344Z,42.00
2022-11-16T02:10:47.321Z,44.90
2022-11-16T02:11:47.320Z,42.40
2022-11-16T02:12:47.294Z,45.20
2022-11-16T02:13:47.309Z,43.90
2022-11-16T02:14:47.271Z,44.30
2022-11-16T02:15:47.278Z,43.80
2022-11-16T02:16:47.220Z,44.00
2022-11-16T02:17:47.229Z,46.00
2022-11-16T02:18:47.254Z,44.10
2022-11-16T02:19:47.236Z,45.90
2022-11-16T02:20:47.200Z,43.30
2022-11-16T02:21:47.161Z,44.40
2022-11-16T02:22:47.162Z,44.10
2022-11-16T02:23:47.156Z,43.30
2022-11-16T02:24:47.124Z,43.20
2022-11-16T02:25:47.144Z,44.40
2022-11-16T02:26:47.152Z,45.10
2022-11-16T02:27:47.091Z,43.80
2022-11-16T02:28:47.073Z,42.70
2022-11-16T02:29:47.081Z,43.30
2022-11-16T02:30:47.040Z,45.40
2022-11-16T02:31:47.028Z,43.50
2022-11-16T02:32:47.033Z,45.00
2022-11-16T02:33:47.030Z,43.40
2022-11-16T02:34:47.028Z,42.60
2022-11-16T02:35:47.019Z,42.70
2022-11-16T02:36:46.984Z,43.00
2022-11-16T02:37:47.024Z,42.50
2022-11-16T02:38:46.978Z,43.40
2022-11-16T02:39:46.951Z,42.50
2022-11-16T02:40:46.920Z,42.80
2022-11-16T02:41:46.928Z,45.80
2022-11-16T02:42:46.887Z,43.60
2022-11-16T02:43:46.891Z,42.90
2022-11-16T02:44:46.891Z,41.80
2022-11-16T02:45:46.839Z,44.60
2022-11-16T02:46:46.860Z,43.90
2022-11-16T02:47:46.833Z,43.60
2022-11-16T02:48:46.813Z,45.10
2022-11-16T02:49:46.815Z,43.90
2022-11-16T02:50:46.794Z,45.60
2022-11-16T02:51:46.781Z,43.80
2022-11-16T02:52:46.800Z,44.20
2022-11-16T02:53:46.758Z,44.60
2022-11-16T02:54:46.747Z,44.70
2022-11-16T02:55:46.715Z,46.00
2022-11-16T02:56:46.761Z,45.60
2022-11-16T02:57:46.717Z,45.90
2022-11-16T02:58:46.727Z,45.50
2022-11-16T02:59:46.674Z,45.30
2022-11-16T03:00:46.733Z,46.40
2022-11-16T03:01:46.637Z,46.00
2022-11-16T03:02:46.631Z,45.20
2022-11-16T03:03:46.641Z,45.70
2022-11-16T03:04:46.612Z,44.60
2022-11-16T03:05:46.596Z,45.00
2022-11-16T03:06:46.791Z,45.10
2022-11-16T03:07:46.596Z,45.60
2022-11-16T03:08:46.575Z,46.30
2022-11-16T03:09:46.573Z,46.20
2022-11-16T03:10:46.551Z,46.90
2022-11-16T03:11:46.504Z,45.50
2022-11-16T03:12:46.514Z,46.30
2022-11-16T03:13:46.496Z,47.10
2022-11-16T03:14:46.492Z,47.50
2022-11-16T03:15:46.451Z,47.20
2022-11-16T03:16:46.468Z,47.70
2022-11-16T03:17:46.429Z,45.20
2022-11-16T03:18:46.445Z,48.10
2022-11-16T03:19:46.393Z,49.40
2022-11-16T03:20:46.408Z,49.00
2022-11-16T03:21:46.381Z,41.50
2022-11-16T03:22:46.384Z,51.20
2022-11-16T03:23:46.358Z,48.40
2022-11-16T03:24:46.348Z,50.30
2022-11-16T03:25:46.321Z,52.00
2022-11-16T03:26:46.311Z,51.00
2022-11-16T03:27:46.336Z,51.30
2022-11-16T03:28:46.287Z,53.90
2022-11-16T03:29:46.275Z,51.60
2022-11-16T03:30:46.260Z,51.20
2022-11-16T03:31:46.252Z,51.30
2022-11-16T03:32:46.270Z,52.00
2022-11-16T03:33:46.219Z,54.50
2022-11-16T03:34:46.226Z,51.40
2022-11-16T03:35:46.210Z,51.80
2022-11-16T03:36:46.202Z,53.30
2022-11-16T03:37:46.180Z,53.50
2022-11-16T03:38:46.171Z,50.80
2022-11-16T03:39:46.154Z,52.50
2022-11-16T03:40:46.155Z,56.90
2022-11-16T03:41:46.116Z,55.80
2022-11-16T03:42:46.116Z,56.30
2022-11-16T03:43:46.117Z,56.90
2022-11-16T03:44:46.090Z,56.50
2022-11-16T03:45:46.080Z,57.20
2022-11-16T03:46:46.043Z,55.80
2022-11-16T03:47:46.462Z,57.70
2022-11-16T03:48:46.701Z,56.30
2022-11-16T03:49:46.251Z,57.80
2022-11-16T03:50:46.507Z,57.00
2022-11-16T03:51:46.396Z,60.50
2022-11-16T03:52:45.992Z,57.60
2022-11-16T03:53:46.211Z,57.50
2022-11-16T03:54:46.115Z,59.20
2022-11-16T03:55:49.764Z,58.00
2022-11-16T03:56:45.932Z,57.50
2022-11-16T03:57:45.922Z,56.90
2022-11-16T03:58:45.945Z,57.40
2022-11-16T03:59:45.904Z,58.30
2022-11-16T04:00:45.976Z,57.70
2022-11-16T04:01:45.859Z,57.40
2022-11-16T04:02:45.845Z,58.20
2022-11-16T04:03:45.822Z,58.40
2022-11-16T04:04:45.836Z,60.80
2022-11-16T04:05:45.808Z,57.00
2022-11-16T04:06:45.826Z,58.20
2022-11-16T04:07:45.790Z,58.20
2022-11-16T04:08:45.786Z,60.00
2022-11-16T04:09:45.792Z,58.80
2022-11-16T04:10:45.739Z,61.00
2022-11-16T04:11:45.745Z,59.20
2022-11-16T04:12:45.730Z,60.10
2022-11-16T04:13:45.704Z,58.70
2022-11-16T04:14:45.703Z,59.60
2022-11-16T04:15:45.676Z,60.70
2022-11-16T04:16:45.659Z,60.40
2022-11-16T04:17:45.660Z,59.90
2022-11-16T04:18:45.625Z,60.20
2022-11-16T04:19:45.623Z,62.60
2022-11-16T04:20:45.623Z,59.70
2022-11-16T04:21:45.632Z,60.20
2022-11-16T04:22:45.593Z,60.70
2022-11-16T04:23:45.575Z,62.50
2022-11-16T04:24:45.583Z,60.90
2022-11-16T04:25:45.549Z,62.20
2022-11-16T04:26:45.565Z,59.30
2022-11-16T04:27:45.515Z,61.50
2022-11-16T04:28:45.565Z,62.60
2022-11-16T04:29:45.524Z,61.50
2022-11-16T04:30:45.486Z,62.70
2022-11-16T04:31:45.465Z,61.30
2022-11-16T04:32:45.495Z,62.20
2022-11-16T04:33:45.464Z,64.10
2022-11-16T04:34:45.442Z,60.80
2022-11-16T04:35:45.428Z,62.70
2022-11-16T04:36:45.391Z,61.70
2022-11-16T04:37:45.410Z,62.50
2022-11-16T04:38:45.420Z,62.50
2022-11-16T04:39:45.369Z,62.50
2022-11-16T04:40:45.375Z,62.10
2022-11-16T04:41:45.364Z,61.30
2022-11-16T04:42:45.367Z,62.50
2022-11-16T04:43:45.313Z,61.80
2022-11-16T04:44:45.304Z,63.30
2022-11-16T04:45:45.275Z,63.60
2022-11-16T04:46:45.282Z,63.50
2022-11-16T04:47:45.247Z,62.40
2022-11-16T04:48:45.237Z,63.30
2022-11-16T04:49:45.316Z,63.80
2022-11-16T04:50:45.220Z,64.90
2022-11-16T04:51:45.240Z,65.90
2022-11-16T04:52:45.219Z,62.40
2022-11-16T04:53:45.189Z,64.20
2022-11-16T04:54:45.176Z,65.00
2022-11-16T04:55:45.167Z,64.50
2022-11-16T04:56:45.146Z,65.00
2022-11-16T04:57:45.145Z,66.50
2022-11-16T04:58:45.120Z,64.50
2022-11-16T04:59:45.116Z,64.10
2022-11-16T05:00:45.092Z,62.40
2022-11-16T05:01:45.124Z,61.50
2022-11-16T05:02:45.070Z,62.90
2022-11-16T05:03:45.054Z,59.00
2022-11-16T05:04:45.071Z,64.80
2022-11-16T05:05:45.021Z,63.50
2022-11-16T05:06:45.007Z,63.10
2022-11-16T05:07:44.983Z,61.70
2022-11-16T05:08:45.031Z,59.70
2022-11-16T05:09:44.956Z,61.80
2022-11-16T05:10:44.968Z,60.30
2022-11-16T05:11:44.938Z,61.70
2022-11-16T05:12:44.959Z,62.30
2022-11-16T05:13:44.900Z,61.50
2022-11-16T05:14:44.902Z,61.00
2022-11-16T05:15:44.876Z,60.00
2022-11-16T05:16:44.887Z,58.80
2022-11-16T05:17:44.852Z,60.40
2022-11-16T05:18:44.877Z,59.80
2022-11-16T05:19:44.821Z,60.80
2022-11-16T05:20:44.825Z,60.70
2022-11-16T05:21:44.827Z,58.50
2022-11-16T05:22:44.796Z,59.90
2022-11-16T05:23:44.773Z,59.70
2022-11-16T05:24:44.793Z,60.60
2022-11-16T05:25:44.779Z,59.70
2022-11-16T05:26:44.741Z,58.90
2022-11-16T05:27:44.747Z,61.30
2022-11-16T05:28:44.742Z,61.30
2022-11-16T05:29:44.740Z,60.20
2022-11-16T05:30:44.714Z,61.50
2022-11-16T05:31:44.696Z,56.30
2022-11-16T05:32:44.688Z,59.40
2022-11-16T05:33:44.670Z,59.80
2022-11-16T05:34:44.706Z,60.40
2022-11-16T05:35:44.663Z,59.60
2022-11-16T05:36:44.625Z,61.30
2022-11-16T05:37:44.648Z,60.10
2022-11-16T05:38:44.627Z,60.70
2022-11-16T05:39:44.593Z,58.70
2022-11-16T05:40:44.628Z,61.20
2022-11-16T05:41:44.588Z,58.10
2022-11-16T05:42:44.576Z,60.80
2022-11-16T05:43:44.562Z,60.50
2022-11-16T05:44:44.534Z,59.70
2022-11-16T05:45:44.500Z,57.60
2022-11-16T05:46:44.497Z,60.40
2022-11-16T05:47:44.503Z,58.80
2022-11-16T05:48:44.529Z,59.00
2022-11-16T05:49:44.446Z,56.70
2022-11-16T05:50:44.471Z,60.20
2022-11-16T05:51:44.426Z,54.90
2022-11-16T05:52:44.429Z,58.00
2022-11-16T05:53:44.429Z,61.30
2022-11-16T05:54:44.415Z,61.70
2022-11-16T05:55:44.445Z,60.50
2022-11-16T05:56:44.358Z,58.50
2022-11-16T05:57:44.388Z,61.20
2022-11-16T05:58:44.330Z,62.10
2022-11-16T05:59:44.338Z,61.70
2022-11-16T06:00:44.329Z,60.50
2022-11-16T06:01:44.367Z,57.50
2022-11-16T06:02:44.350Z,61.70
2022-11-16T06:03:44.263Z,61.40
2022-11-16T06:04:44.249Z,60.90
2022-11-16T06:05:44.273Z,60.50
2022-11-16T06:06:44.250Z,60.90
2022-11-16T06:07:44.260Z,61.40
2022-11-16T06:08:44.226Z,61.70
2022-11-16T06:09:44.199Z,60.90
2022-11-16T06:10:44.241Z,60.80
2022-11-16T06:11:44.191Z,60.50
2022-11-16T06:12:44.174Z,61.10
2022-11-16T06:13:44.153Z,62.40
2022-11-16T06:14:44.143Z,62.70
2022-11-16T06:15:57.028Z,60.80
2022-11-16T06:16:44.165Z,59.80
2022-11-16T06:17:44.106Z,59.90
2022-11-16T06:18:44.097Z,59.80
2022-11-16T06:19:44.108Z,62.70
2022-11-16T06:20:44.094Z,62.50
2022-11-16T06:21:44.082Z,62.10
2022-11-16T06:22:44.032Z,62.90
2022-11-16T06:23:44.002Z,63.80
2022-11-16T06:24:44.032Z,64.20
2022-11-16T06:25:43.964Z,63.10
2022-11-16T06:26:43.982Z,63.20
2022-11-16T06:27:43.951Z,63.70
2022-11-16T06:28:43.959Z,64.20
2022-11-16T06:29:43.952Z,62.30
2022-11-16T06:30:43.931Z,63.90
2022-11-16T06:31:43.908Z,62.70
2022-11-16T06:32:43.910Z,63.20
2022-11-16T06:33:43.861Z,61.30
2022-11-16T06:34:43.874Z,63.40
2022-11-16T06:35:43.847Z,63.10
2022-11-16T06:36:43.832Z,64.70
2022-11-16T06:37:43.848Z,63.30
2022-11-16T06:38:43.820Z,63.30
2022-11-16T06:39:43.791Z,62.60
2022-11-16T06:40:43.787Z,65.20
2022-11-16T06:41:43.789Z,64.50
2022-11-16T06:42:43.810Z,64.60
2022-11-16T06:43:43.757Z,62.70
2022-11-16T06:44:43.754Z,63.40
2022-11-16T06:45:43.739Z,62.90
2022-11-16T06:46:43.723Z,64.30
2022-11-16T06:47:43.719Z,64.70
2022-11-16T06:48:43.740Z,63.60
2022-11-16T06:49:43.669Z,64.80
2022-11-16T06:50:43.747Z,65.20
2022-11-16T06:51:43.650Z,67.00
2022-11-16T06:52:43.693Z,65.00
2022-11-16T06:53:43.689Z,63.80
2022-11-16T06:54:43.624Z,64.80
2022-11-16T06:55:43.607Z,67.10
2022-11-16T06:56:43.606Z,65.70
2022-11-16T06:57:43.586Z,65.60
2022-11-16T06:58:43.570Z,65.40
2022-11-16T06:59:43.537Z,66.30
2022-11-16T07:00:43.542Z,66.50
2022-11-16T07:01:43.624Z,68.90
2022-11-16T07:02:43.513Z,67.70
2022-11-16T07:03:43.478Z,67.10
2022-11-16T07:04:43.487Z,66.20
2022-11-16T07:05:43.487Z,68.00
2022-11-16T07:06:43.509Z,66.40
2022-11-16T07:07:43.466Z,66.30
2022-11-16T07:08:43.472Z,66.80
2022-11-16T07:09:43.455Z,69.80
2022-11-16T07:10:43.413Z,70.50
2022-11-16T07:11:43.445Z,68.90
2022-11-16T07:12:43.374Z,66.00
2022-11-16T07:13:43.372Z,69.10
2022-11-16T07:14:43.331Z,70.90
2022-11-16T07:15:43.343Z,69.70
2022-11-16T07:16:43.300Z,69.30
2022-11-16T07:17:43.332Z,67.70
2022-11-16T07:18:43.309Z,69.50
2022-11-16T07:19:43.285Z,68.90
2022-11-16T07:20:43.270Z,68.20
2022-11-16T07:21:43.317Z,67.30
2022-11-16T07:22:43.250Z,70.70
2022-11-16T07:23:43.235Z,70.40
2022-11-16T07:24:43.230Z,70.30
2022-11-16T07:25:43.238Z,68.50
2022-11-16T07:26:43.211Z,71.30
2022-11-16T07:27:43.235Z,69.20
2022-11-16T07:28:47.987Z,67.10
2022-11-16T07:29:43.176Z,70.20
2022-11-16T07:30:43.168Z,69.40
2022-11-16T07:31:43.138Z,70.60
2022-11-16T07:32:43.137Z,70.20
2022-11-16T07:33:43.142Z,69.60
2022-11-16T07:34:43.078Z,70.20
2022-11-16T07:35:43.063Z,71.70
2022-11-16T07:36:43.111Z,71.80
2022-11-16T07:37:43.057Z,73.50
2022-11-16T07:38:43.047Z,72.10
2022-11-16T07:39:43.011Z,70.90
2022-11-16T07:40:43.010Z,73.30
2022-11-16T07:41:43.020Z,74.10
2022-11-16T07:42:43.002Z,74.10
2022-11-16T07:43:44.377Z,74.00
2022-11-16T07:44:42.980Z,72.10
2022-11-16T07:45:42.947Z,70.70
2022-11-16T07:46:47.949Z,72.70
2022-11-16T07:47:42.932Z,70.60
2022-11-16T07:48:42.902Z,71.70
2022-11-16T07:49:42.914Z,73.80
2022-11-16T07:50:42.883Z,71.10
2022-11-16T07:51:42.911Z,71.60
2022-11-16T07:52:42.839Z,70.70
2022-11-16T07:53:42.858Z,71.90
2022-11-16T07:54:42.828Z,71.30
2022-11-16T07:55:42.817Z,72.80
2022-11-16T07:56:42.805Z,71.50
2022-11-16T07:57:42.799Z,72.30
2022-11-16T07:58:42.773Z,71.50
2022-11-16T07:59:42.767Z,72.80
2022-11-16T08:00:42.755Z,71.50
2022-11-16T08:01:42.783Z,70.70
2022-11-16T08:02:42.735Z,73.00
2022-11-16T08:03:42.709Z,70.50
2022-11-16T08:04:42.759Z,69.80
2022-11-16T08:05:42.689Z,73.10
2022-11-16T08:06:42.664Z,71.70
2022-11-16T08:07:42.698Z,70.60
2022-11-16T08:08:42.635Z,71.00
2022-11-16T08:09:42.655Z,72.10
2022-11-16T08:10:42.608Z,71.40
2022-11-16T08:11:42.608Z,69.80
2022-11-16T08:12:42.597Z,68.40
2022-11-16T08:13:42.603Z,67.90
2022-11-16T08:14:42.579Z,67.50
2022-11-16T08:15:42.555Z,68.80
2022-11-16T08:16:42.734Z,67.90
2022-11-16T08:17:42.518Z,68.50
2022-11-16T08:18:42.547Z,68.20
2022-11-16T08:19:42.514Z,69.10
2022-11-16T08:20:42.525Z,70.40
2022-11-16T08:21:42.486Z,69.80
2022-11-16T08:22:42.458Z,64.50
2022-11-16T08:23:42.441Z,64.20
2022-11-16T08:24:42.440Z,65.90
2022-11-16T08:25:42.412Z,64.50
2022-11-16T08:26:42.422Z,65.80
2022-11-16T08:27:42.407Z,63.30
2022-11-16T08:28:42.400Z,62.50
2022-11-16T08:29:42.391Z,61.30
2022-11-16T08:30:42.369Z,59.60
2022-11-16T08:31:42.345Z,59.40
2022-11-16T08:32:42.355Z,60.10
2022-11-16T08:33:42.393Z,56.80
2022-11-16T08:34:42.415Z,56.50
2022-11-16T08:35:42.307Z,57.70
2022-11-16T08:36:42.281Z,55.10
2022-11-16T08:37:42.274Z,56.20
2022-11-16T08:38:42.239Z,56.60
2022-11-16T08:39:42.243Z,56.20
2022-11-16T08:40:42.214Z,56.70
2022-11-16T08:41:42.241Z,53.40
2022-11-16T08:42:43.827Z,54.10
2022-11-16T08:43:42.190Z,53.40
2022-11-16T08:44:42.167Z,54.40
2022-11-16T08:45:42.156Z,54.50
2022-11-16T08:46:42.132Z,53.00
2022-11-16T08:47:42.133Z,52.10
2022-11-16T08:48:42.114Z,53.00
2022-11-16T08:49:46.700Z,51.30
2022-11-16T08:51:15.454Z,52.00
2022-11-16T08:51:42.080Z,51.00
2022-11-16T08:52:42.083Z,48.10
2022-11-16T08:53:42.055Z,48.80
2022-11-16T08:54:42.039Z,49.80
2022-11-16T08:55:42.039Z,49.40
2022-11-16T08:56:42.023Z,50.20
2022-11-16T08:57:42.028Z,49.70
2022-11-16T08:58:41.983Z,47.60
2022-11-16T08:59:41.988Z,46.60
2022-11-16T09:00:41.956Z,46.90
2022-11-16T09:01:42.008Z,49.20
2022-11-16T09:02:41.948Z,48.10
2022-11-16T09:03:41.949Z,47.40
2022-11-16T09:04:41.934Z,47.00
2022-11-16T09:05:41.909Z,48.90
2022-11-16T09:06:41.875Z,47.40
2022-11-16T09:07:41.861Z,48.40
2022-11-16T09:08:41.874Z,48.80
2022-11-16T09:09:42.052Z,49.90
2022-11-16T09:10:41.849Z,48.50
2022-11-16T09:11:41.814Z,48.70
2022-11-16T09:12:41.824Z,48.90
2022-11-16T09:13:41.786Z,49.30
2022-11-16T09:14:41.779Z,45.60
2022-11-16T09:15:41.798Z,47.60
2022-11-16T09:16:41.754Z,47.70
2022-11-16T09:17:41.755Z,44.30
2022-11-16T09:18:41.715Z,45.40
2022-11-16T09:19:41.709Z,42.30
2022-11-16T09:20:41.701Z,43.60
2022-11-16T09:21:41.711Z,42.50
2022-11-16T09:22:41.669Z,45.40
2022-11-16T09:23:41.673Z,42.90
2022-11-16T09:24:41.652Z,43.10
2022-11-16T09:25:41.653Z,41.30
2022-11-16T09:26:41.652Z,40.60
2022-11-16T09:27:41.627Z,42.30
2022-11-16T09:28:41.608Z,43.30
2022-11-16T09:29:41.578Z,40.50
2022-11-16T09:30:41.564Z,40.00
2022-11-16T09:31:41.571Z,40.20
2022-11-16T09:32:41.594Z,41.80
2022-11-16T09:33:41.539Z,41.10
2022-11-16T09:34:41.517Z,34.90
2022-11-16T09:35:41.499Z,36.10
2022-11-16T09:36:41.538Z,38.90
2022-11-16T09:37:41.523Z,37.50
2022-11-16T09:39:13.289Z,36.40
2022-11-16T09:39:41.482Z,34.00
2022-11-16T09:40:41.455Z,35.70
2022-11-16T09:41:41.447Z,33.40
2022-11-16T09:42:41.417Z,33.90
2022-11-16T09:43:45.772Z,33.40
2022-11-16T09:44:41.447Z,35.00
2022-11-16T09:45:41.421Z,32.60
2022-11-16T09:46:41.418Z,34.20
2022-11-16T09:47:41.386Z,32.80
2022-11-16T09:48:41.379Z,33.60
2022-11-16T09:49:41.389Z,34.10
2022-11-16T09:50:41.372Z,33.00
2022-11-16T09:51:41.416Z,31.80
2022-11-16T09:52:41.449Z,31.40
2022-11-16T09:53:41.339Z,30.20
2022-11-16T09:54:41.312Z,28.40
2022-11-16T09:55:41.457Z,28.90
2022-11-16T09:56:41.254Z,28.50
2022-11-16T09:57:41.362Z,27.50
2022-11-16T10:05:56.667Z,25.10
2022-11-16T10:06:57.709Z,23.10
2022-11-16T10:07:57.617Z,23.60
2022-11-16T10:08:57.626Z,22.70
2022-11-16T10:09:57.626Z,21.60
2022-11-16T10:10:57.618Z,20.60
2022-11-16T10:11:57.647Z,18.90
2022-11-16T10:12:57.610Z,18.80
2022-11-16T10:14:02.821Z,18.70
2022-11-16T10:14:57.592Z,19.00
2022-11-16T10:15:57.562Z,19.30
2022-11-16T10:16:57.557Z,19.00
2022-11-16T10:17:57.521Z,19.00
2022-11-16T10:18:57.488Z,18.40
2022-11-16T10:19:57.517Z,18.10
2022-11-16T10:20:57.476Z,19.00
2022-11-16T10:21:57.484Z,18.60
2022-11-16T10:22:57.639Z,19.90
2022-11-16T10:23:57.449Z,18.40
2022-11-16T10:24:57.403Z,19.20
2022-11-16T10:25:57.407Z,18.70
2022-11-16T10:26:57.408Z,20.10
2022-11-16T10:27:57.409Z,19.30
2022-11-16T10:28:57.435Z,20.50
2022-11-16T10:29:57.342Z,20.00
2022-11-16T10:30:57.353Z,18.80
2022-11-16T10:31:57.332Z,19.90
2022-11-16T10:32:57.302Z,19.70
2022-11-16T10:33:57.360Z,20.00
2022-11-16T10:34:57.268Z,21.30
2022-11-16T10:35:57.321Z,21.50
2022-11-16T10:36:57.231Z,21.40
2022-11-16T10:37:57.318Z,21.50
2022-11-16T10:38:57.223Z,21.10
2022-11-16T10:39:57.217Z,22.50
2022-11-16T10:40:57.196Z,22.80
2022-11-16T10:41:57.176Z,24.40
2022-11-16T10:42:57.176Z,24.40
2022-11-16T10:43:57.181Z,23.80
2022-11-16T10:44:57.143Z,22.10
2022-11-16T10:45:57.155Z,25.00
2022-11-16T10:46:57.130Z,23.90
2022-11-16T10:47:57.098Z,24.60
2022-11-16T10:48:57.106Z,25.80
2022-11-16T10:49:57.120Z,26.10
2022-11-16T10:50:57.309Z,26.90
2022-11-16T10:51:57.064Z,23.50
2022-11-16T10:52:57.054Z,26.00
2022-11-16T10:53:57.050Z,25.50
2022-11-16T10:54:57.050Z,25.50
2022-11-16T10:55:57.030Z,26.10
2022-11-16T10:56:56.995Z,24.80
2022-11-16T10:57:57.017Z,23.90
2022-11-16T10:58:56.990Z,26.10
2022-11-16T10:59:56.990Z,25.20
2022-11-16T11:00:56.965Z,24.40
2022-11-16T11:01:56.933Z,23.60
2022-11-16T11:02:56.926Z,25.60
2022-11-16T11:03:56.923Z,25.10
2022-11-16T11:04:56.919Z,24.30
2022-11-16T11:05:56.907Z,25.50
2022-11-16T11:06:56.970Z,24.00
2022-11-16T11:07:59.555Z,25.10
2022-11-16T11:08:56.873Z,23.90
2022-11-16T11:09:56.898Z,26.20
2022-11-16T11:10:56.807Z,20.80
2022-11-16T11:11:56.844Z,24.90
2022-11-16T11:12:56.810Z,25.10
2022-11-16T11:13:56.789Z,24.70
2022-11-16T11:14:56.788Z,23.90
2022-11-16T11:15:56.737Z,23.90
2022-11-16T11:16:56.782Z,25.80
2022-11-16T11:17:56.793Z,25.40
2022-11-16T11:18:56.736Z,25.60
2022-11-16T11:19:56.712Z,25.00
2022-11-16T11:20:56.706Z,27.20
2022-11-16T11:21:56.725Z,26.10
2022-11-16T11:22:56.670Z,26.40
2022-11-16T11:24:10.555Z,24.30
2022-11-16T11:24:56.630Z,25.00
2022-11-16T11:25:56.612Z,25.00
2022-11-16T11:26:56.591Z,23.80
2022-11-16T11:27:56.593Z,24.10
2022-11-16T11:28:56.565Z,23.30
2022-11-16T11:29:56.584Z,20.90
2022-11-16T11:30:56.530Z,25.20
2022-11-16T11:31:56.555Z,25.70
2022-11-16T11:32:56.525Z,24.90
2022-11-16T11:33:56.509Z,25.10
2022-11-16T11:34:56.492Z,24.90
2022-11-16T11:35:56.470Z,25.20
2022-11-16T11:36:56.476Z,22.80
2022-11-16T11:37:56.477Z,23.60
2022-11-16T11:38:56.523Z,23.80
2022-11-16T11:39:56.416Z,23.40
2022-11-16T11:40:56.405Z,23.90
2022-11-16T11:41:56.426Z,24.40
2022-11-16T11:42:56.460Z,24.00
2022-11-16T11:43:56.382Z,23.80
2022-11-16T11:44:56.376Z,24.20
2022-11-16T11:45:56.363Z,24.00
2022-11-16T11:47:42.509Z,27.10
2022-11-16T11:48:00.797Z,24.90
2022-11-16T11:48:56.327Z,22.70
2022-11-16T11:49:56.354Z,24.40
2022-11-16T11:50:56.285Z,24.50
2022-11-16T11:51:56.294Z,24.20
2022-11-16T11:52:56.297Z,24.30
2022-11-16T11:53:56.296Z,23.40
2022-11-16T11:54:56.334Z,23.60
2022-11-16T11:55:56.264Z,23.50
2022-11-16T11:56:56.241Z,23.30
2022-11-16T11:57:56.302Z,22.80
2022-11-16T11:58:56.278Z,24.70
2022-11-16T11:59:56.212Z,22.90
2022-11-16T12:00:56.158Z,21.50
2022-11-16T12:01:56.129Z,22.10
2022-11-16T12:02:56.142Z,22.00
2022-11-16T12:03:56.141Z,22.40
2022-11-16T12:04:56.104Z,22.40
2022-11-16T12:05:56.127Z,22.90
2022-11-16T12:06:56.131Z,23.60
2022-11-16T12:07:56.060Z,23.50
2022-11-16T12:08:56.185Z,24.00
2022-11-16T12:09:56.707Z,21.10
2022-11-16T12:10:56.028Z,22.50
2022-11-16T12:11:56.035Z,22.90
2022-11-16T12:12:56.029Z,22.60
2022-11-16T12:13:56.046Z,23.80
2022-11-16T12:14:55.977Z,22.70
2022-11-16T12:15:55.962Z,22.20
2022-11-16T12:16:55.970Z,22.70
2022-11-16T12:17:55.980Z,22.90
2022-11-16T12:18:55.942Z,22.70
2022-11-16T12:19:55.935Z,22.70
2022-11-16T12:20:55.895Z,22.30
2022-11-16T12:21:55.926Z,22.60
2022-11-16T12:23:01.036Z,22.70
2022-11-16T12:23:55.891Z,23.40
2022-11-16T12:24:55.843Z,22.60
2022-11-16T12:25:55.847Z,22.50
2022-11-16T12:26:55.821Z,22.60
2022-11-16T12:27:55.806Z,23.00
2022-11-16T12:28:55.795Z,22.60
2022-11-16T12:29:55.793Z,24.00
2022-11-16T12:30:55.744Z,23.10
2022-11-16T12:31:55.827Z,24.00
2022-11-16T12:32:55.741Z,22.80
2022-11-16T12:33:55.778Z,23.00
2022-11-16T12:34:55.690Z,23.60
2022-11-16T12:35:55.683Z,22.80
2022-11-16T12:36:55.667Z,21.90
2022-11-16T12:37:55.657Z,22.20
2022-11-16T12:38:55.848Z,23.60
2022-11-16T12:39:55.668Z,23.00
2022-11-16T12:40:55.637Z,23.30
2022-11-16T12:41:55.610Z,24.90
2022-11-16T12:42:55.604Z,23.00
2022-11-16T12:43:55.611Z,24.10
2022-11-16T12:44:55.581Z,22.80
2022-11-16T12:45:55.572Z,24.10
2022-11-16T12:46:55.547Z,24.70
2022-11-16T12:47:55.543Z,25.00
2022-11-16T12:48:55.521Z,24.50
2022-11-16T12:49:55.497Z,23.90
2022-11-16T12:50:55.504Z,23.80
2022-11-16T12:51:55.493Z,24.00
2022-11-16T12:52:55.479Z,24.50
2022-11-16T12:53:55.507Z,23.70
2022-11-16T12:55:24.319Z,25.10
2022-11-16T12:55:55.540Z,25.10
2022-11-16T12:56:55.488Z,24.00
2022-11-16T12:57:55.394Z,22.10
2022-11-16T12:58:55.377Z,24.80
2022-11-16T12:59:55.381Z,24.20
2022-11-16T13:00:55.690Z,25.30